Time;durP1;ratioP1;P1;durP2;ratioP2;P2;SDS_P1;SDS_P2;PMS_P1;PMS_P2;Temp;Humidity;BMP_temperature;BMP_pressure;BME280_temperature;BME280_humidity;BME280_pressure;Samples;Min_cycle;Max_cycle;Signal;HPM_P1;HPM_P2
2022/07/24 00:01:55;;;;;;;3.70;3.40;;;24.60;71.90;;;;;;5097042;28;20200;-89
2022/07/24 00:04:21;;;;;;;3.63;3.40;;;24.60;72.70;;;;;;5097588;28;20459;-88
2022/07/24 00:06:47;;;;;;;4.80;3.40;;;24.50;73.90;;;;;;5098003;28;20177;-89
2022/07/24 00:09:13;;;;;;;3.67;3.37;;;24.50;75.30;;;;;;5097276;28;20552;-88
2022/07/24 00:11:38;;;;;;;3.63;3.33;;;24.40;74.60;;;;;;5098319;28;20170;-88
2022/07/24 00:14:04;;;;;;;3.57;3.27;;;24.40;75.50;;;;;;5098300;28;20196;-88
2022/07/24 00:16:30;;;;;;;3.77;3.13;;;24.30;75.20;;;;;;5115566;28;20576;-88
2022/07/24 00:18:56;;;;;;;3.80;3.40;;;24.30;75.50;;;;;;5097153;28;20456;-89
2022/07/24 00:21:22;;;;;;;4.37;3.47;;;24.40;74.90;;;;;;5096806;28;20225;-89
2022/07/24 00:23:47;;;;;;;4.50;3.83;;;24.40;75.30;;;;;;5096732;28;20174;-89
2022/07/24 00:26:13;;;;;;;4.20;3.80;;;24.40;74.70;;;;;;5096293;28;20181;-88
2022/07/24 00:28:39;;;;;;;4.10;3.70;;;24.40;76.20;;;;;;5096460;28;20259;-88
2022/07/24 00:31:06;;;;;;;4.60;3.70;;;24.30;74.50;;;;;;5096412;28;20571;-88
2022/07/24 00:33:32;;;;;;;4.40;3.33;;;24.40;73.70;;;;;;5096771;28;20242;-88
2022/07/24 00:35:57;;;;;;;3.60;3.30;;;24.40;73.20;;;;;;5096200;28;20186;-89
2022/07/24 00:38:23;;;;;;;3.40;3.10;;;24.40;72.70;;;;;;5096947;28;20178;-88
2022/07/24 00:40:49;;;;;;;3.57;3.27;;;24.50;72.50;;;;;;5096878;28;20217;-89
2022/07/24 00:43:16;;;;;;;3.90;3.47;;;24.50;72.10;;;;;;5113770;28;20175;-88
2022/07/24 00:45:43;;;;;;;3.40;3.20;;;24.40;73.80;;;;;;5097352;28;20490;-89
2022/07/24 00:48:09;;;;;;;3.60;3.30;;;24.40;72.90;;;;;;5116261;28;20257;-89
2022/07/24 00:50:36;;;;;;;3.57;3.20;;;24.40;72.80;;;;;;5096899;28;20203;-89
2022/07/24 00:53:03;;;;;;;3.57;3.27;;;24.40;72.30;;;;;;5097320;28;20174;-88
2022/07/24 00:55:28;;;;;;;3.93;2.93;;;24.40;72.30;;;;;;5096780;28;20269;-89
2022/07/24 00:57:54;;;;;;;4.97;3.10;;;24.40;72.10;;;;;;5114708;28;20234;-89
2022/07/24 01:00:21;;;;;;;4.17;3.20;;;24.40;73.50;;;;;;5096816;28;20217;-88
2022/07/24 01:02:49;;;;;;;3.47;3.17;;;24.40;72.30;;;;;;5097380;28;20231;-89
2022/07/24 01:05:15;;;;;;;4.00;3.17;;;24.40;73.00;;;;;;5114482;28;20174;-89
2022/07/24 01:07:41;;;;;;;3.43;3.13;;;24.30;73.60;;;;;;5097301;28;20264;-88
2022/07/24 01:10:08;;;;;;;4.23;3.33;;;24.30;73.70;;;;;;5096675;28;20473;-88
2022/07/24 01:12:36;;;;;;;3.40;3.10;;;24.30;73.40;;;;;;5096348;28;20174;-88
2022/07/24 01:15:03;;;;;;;4.50;3.47;;;24.30;73.70;;;;;;5097010;28;20170;-88
2022/07/24 01:17:30;;;;;;;3.50;3.20;;;24.30;73.60;;;;;;5114768;28;20188;-89
2022/07/24 01:19:56;;;;;;;3.67;3.37;;;24.20;73.40;;;;;;5096192;28;20262;-89
2022/07/24 01:22:22;;;;;;;3.90;3.30;;;24.30;73.70;;;;;;5096702;28;20508;-88
2022/07/24 01:24:48;;;;;;;3.60;3.30;;;24.30;74.00;;;;;;5095771;28;20311;-88
2022/07/24 01:27:14;;;;;;;3.50;3.20;;;24.30;73.20;;;;;;5097202;28;20241;-89
2022/07/24 01:29:40;;;;;;;6.00;3.27;;;24.20;73.40;;;;;;5097228;28;20260;-88
2022/07/24 01:32:06;;;;;;;3.50;3.20;;;24.30;72.70;;;;;;5097288;28;20346;-89
2022/07/24 01:34:32;;;;;;;4.13;3.60;;;24.30;72.70;;;;;;5097379;28;20270;-89
2022/07/24 01:36:58;;;;;;;3.53;3.10;;;24.20;73.60;;;;;;5097884;28;20174;-88
2022/07/24 01:39:24;;;;;;;3.50;3.20;;;24.30;72.80;;;;;;5097142;28;20198;-88
2022/07/24 01:41:49;;;;;;;3.80;3.47;;;24.20;72.30;;;;;;5097157;28;20209;-88
2022/07/24 01:44:15;;;;;;;3.67;3.37;;;24.30;72.00;;;;;;5097835;28;20296;-88
2022/07/24 01:46:41;;;;;;;3.53;3.23;;;24.30;72.30;;;;;;5118431;28;20166;-88
2022/07/24 01:49:07;;;;;;;3.93;3.37;;;24.20;71.90;;;;;;5100760;28;20499;-88
2022/07/24 01:51:33;;;;;;;3.73;3.30;;;24.30;71.70;;;;;;5100962;28;20238;-88
2022/07/24 01:53:59;;;;;;;3.37;3.10;;;24.20;72.80;;;;;;5100842;28;20181;-88
2022/07/24 01:56:24;;;;;;;3.17;2.87;;;24.10;72.70;;;;;;5100591;28;20185;-88
2022/07/24 01:58:50;;;;;;;3.33;3.03;;;24.10;72.40;;;;;;5100043;28;20166;-88
2022/07/24 02:01:16;;;;;;;4.73;3.10;;;24.10;72.30;;;;;;5100244;28;20261;-88
2022/07/24 02:03:42;;;;;;;3.83;3.20;;;24.10;72.50;;;;;;5100544;28;20166;-89
2022/07/24 02:06:08;;;;;;;3.50;3.20;;;24.10;72.20;;;;;;5101199;28;20217;-88
2022/07/24 02:08:33;;;;;;;3.40;3.10;;;24.10;71.80;;;;;;5100569;28;20297;-88
2022/07/24 02:10:59;;;;;;;4.10;3.70;;;24.10;72.70;;;;;;5118291;28;20562;-88
2022/07/24 02:13:25;;;;;;;3.40;3.10;;;24.10;72.80;;;;;;5100344;28;20211;-88
2022/07/24 02:15:52;;;;;;;3.20;3.00;;;24.10;72.10;;;;;;5101444;28;20186;-89
2022/07/24 02:18:18;;;;;;;3.97;3.20;;;24.10;71.90;;;;;;5118584;28;20167;-89
2022/07/24 02:20:43;;;;;;;3.60;3.30;;;24.10;71.60;;;;;;5099946;28;20224;-89
2022/07/24 02:23:10;;;;;;;3.53;3.23;;;24.10;72.20;;;;;;5100968;28;20166;-89
2022/07/24 02:25:36;;;;;;;3.27;3.00;;;24.10;71.50;;;;;;5100933;28;20216;-89
2022/07/24 02:28:01;;;;;;;3.47;3.17;;;24.10;71.40;;;;;;5100979;28;20193;-88
2022/07/24 02:30:27;;;;;;;3.23;2.93;;;24.00;71.80;;;;;;5118495;28;20166;-88
2022/07/24 02:32:53;;;;;;;6.10;3.83;;;24.00;71.70;;;;;;5100734;28;20174;-89
2022/07/24 02:35:19;;;;;;;3.63;3.30;;;24.00;72.70;;;;;;5118273;28;20166;-89
2022/07/24 02:37:46;;;;;;;3.43;3.17;;;24.00;72.10;;;;;;5100841;28;20208;-89
2022/07/24 02:40:13;;;;;;;3.50;3.20;;;24.00;71.70;;;;;;5118493;28;20194;-89
2022/07/24 02:42:39;;;;;;;3.37;2.90;;;24.00;71.80;;;;;;5099744;28;20186;-88
2022/07/24 02:45:06;;;;;;;3.40;3.10;;;23.90;71.80;;;;;;5099486;28;20188;-89
2022/07/24 02:47:32;;;;;;;3.50;3.20;;;23.90;71.50;;;;;;5101163;28;20229;-88
2022/07/24 02:49:58;;;;;;;2.93;2.73;;;23.90;71.90;;;;;;5099728;28;20603;-89
2022/07/24 02:52:24;;;;;;;3.07;2.77;;;23.90;71.60;;;;;;5099914;28;20632;-89
2022/07/24 02:54:50;;;;;;;3.30;3.00;;;23.90;71.50;;;;;;5098952;28;20170;-89
2022/07/24 02:57:15;;;;;;;3.70;3.10;;;23.90;71.20;;;;;;5099335;28;20183;-89
2022/07/24 02:59:41;;;;;;;3.30;3.00;;;23.90;71.10;;;;;;5099643;28;20198;-89
2022/07/24 03:02:07;;;;;;;3.20;2.90;;;23.90;70.80;;;;;;5117635;28;20170;-89
2022/07/24 03:04:33;;;;;;;3.00;2.70;;;23.90;70.70;;;;;;5100147;28;20166;-88
2022/07/24 03:06:59;;;;;;;3.73;3.00;;;23.90;70.60;;;;;;5117548;28;20175;-88
2022/07/24 03:09:24;;;;;;;3.33;3.03;;;23.90;70.50;;;;;;5117924;28;20182;-88
2022/07/24 03:11:50;;;;;;;3.37;3.07;;;23.90;70.40;;;;;;5099362;28;20281;-89
2022/07/24 03:14:16;;;;;;;3.20;3.00;;;23.90;70.60;;;;;;5117871;28;20180;-88
2022/07/24 03:16:42;;;;;;;3.00;2.80;;;23.90;70.30;;;;;;5099756;28;20264;-88
2022/07/24 03:19:07;;;;;;;3.40;2.93;;;23.90;70.20;;;;;;5099489;28;20181;-88
2022/07/24 03:21:33;;;;;;;3.10;2.90;;;23.90;70.20;;;;;;5098754;28;20235;-89
2022/07/24 03:23:59;;;;;;;3.13;2.93;;;23.80;69.90;;;;;;5099366;28;20182;-88
2022/07/24 03:26:24;;;;;;;3.50;3.20;;;23.90;69.90;;;;;;5099275;28;20174;-89
2022/07/24 03:28:50;;;;;;;3.83;3.20;;;23.80;70.30;;;;;;5099361;28;20539;-89
2022/07/24 03:31:16;;;;;;;3.37;3.07;;;23.80;70.50;;;;;;5099872;28;20162;-88
2022/07/24 03:33:42;;;;;;;3.10;2.83;;;23.80;70.10;;;;;;5099274;28;20227;-88
2022/07/24 03:36:08;;;;;;;3.53;2.77;;;23.80;69.80;;;;;;5116945;28;20636;-89
2022/07/24 03:38:34;;;;;;;3.00;2.80;;;23.80;69.60;;;;;;5098908;28;20209;-89
2022/07/24 03:41:00;;;;;;;3.23;2.93;;;23.80;69.80;;;;;;5099775;28;20246;-89
2022/07/24 03:43:26;;;;;;;2.90;2.70;;;23.80;69.70;;;;;;5117434;28;20195;-89
2022/07/24 03:45:52;;;;;;;2.87;2.67;;;23.80;69.60;;;;;;5099159;28;20242;-89
2022/07/24 03:48:17;;;;;;;3.00;2.70;;;23.80;69.40;;;;;;5116354;28;20159;-88
2022/07/24 03:50:43;;;;;;;3.13;2.70;;;23.80;69.10;;;;;;5117157;28;20426;-89
2022/07/24 03:53:09;;;;;;;3.30;3.00;;;23.80;69.20;;;;;;5098915;28;20174;-89
2022/07/24 03:55:35;;;;;;;3.40;3.10;;;23.80;69.10;;;;;;5098689;28;20181;-89
2022/07/24 03:58:01;;;;;;;2.87;2.67;;;23.70;69.20;;;;;;5099073;28;20575;-89
2022/07/24 04:00:27;;;;;;;3.00;2.80;;;23.80;68.90;;;;;;5098841;28;20212;-89
2022/07/24 04:02:53;;;;;;;3.17;2.87;;;23.80;68.90;;;;;;5116909;28;20425;-88
2022/07/24 04:05:19;;;;;;;3.00;2.80;;;23.70;69.10;;;;;;5098952;28;20171;-88
2022/07/24 04:07:45;;;;;;;3.00;2.80;;;23.70;68.90;;;;;;5098317;28;20177;-88
2022/07/24 04:10:11;;;;;;;3.17;2.83;;;23.80;68.80;;;;;;5098689;28;20174;-88
2022/07/24 04:12:37;;;;;;;3.10;2.80;;;23.80;68.90;;;;;;5099321;28;20189;-88
2022/07/24 04:15:03;;;;;;;3.13;2.93;;;23.80;68.40;;;;;;5098811;28;20204;-88
2022/07/24 04:17:29;;;;;;;2.70;2.50;;;23.80;68.20;;;;;;5116702;28;20269;-88
2022/07/24 04:19:55;;;;;;;2.90;2.70;;;23.80;68.10;;;;;;5098217;28;20289;-88
2022/07/24 04:22:21;;;;;;;3.33;3.03;;;23.80;68.70;;;;;;5098688;28;20178;-88
2022/07/24 04:24:46;;;;;;;2.83;2.63;;;23.80;68.20;;;;;;5097983;28;20506;-88
2022/07/24 04:27:12;;;;;;;3.10;2.80;;;23.80;68.40;;;;;;5098363;28;20226;-88
2022/07/24 04:29:38;;;;;;;2.83;2.63;;;23.80;68.80;;;;;;5098077;28;20170;-88
2022/07/24 04:32:04;;;;;;;3.63;3.10;;;23.80;68.00;;;;;;5098726;28;20199;-88
2022/07/24 04:34:30;;;;;;;2.93;2.70;;;23.80;68.20;;;;;;5098282;28;20182;-88
2022/07/24 04:36:55;;;;;;;3.10;2.70;;;23.80;68.10;;;;;;5116306;28;20178;-89
2022/07/24 04:39:21;;;;;;;3.00;2.80;;;23.80;67.80;;;;;;5097910;28;20204;-88
2022/07/24 04:41:47;;;;;;;2.67;2.47;;;23.80;67.60;;;;;;5098056;28;20427;-88
2022/07/24 04:44:12;;;;;;;3.03;2.80;;;23.90;67.60;;;;;;5115469;28;20265;-88
2022/07/24 04:46:39;;;;;;;2.83;2.63;;;23.80;67.40;;;;;;5098077;28;20170;-88
2022/07/24 04:49:04;;;;;;;2.80;2.60;;;23.90;67.30;;;;;;5098086;28;20193;-88
2022/07/24 04:51:30;;;;;;;3.23;2.93;;;23.90;67.30;;;;;;5097438;28;20564;-88
2022/07/24 04:53:56;;;;;;;3.33;3.03;;;23.90;67.10;;;;;;5097298;28;20235;-88
2022/07/24 04:56:22;;;;;;;2.90;2.70;;;23.90;67.10;;;;;;5097156;28;20202;-88
2022/07/24 04:58:48;;;;;;;3.10;2.80;;;23.90;66.70;;;;;;5097616;28;20185;-88
2022/07/24 05:01:14;;;;;;;3.23;2.93;;;24.00;67.50;;;;;;5097395;28;20586;-88
2022/07/24 05:03:40;;;;;;;2.90;2.70;;;24.00;66.90;;;;;;5096578;28;20163;-88
2022/07/24 05:06:06;;;;;;;2.77;2.57;;;24.00;67.10;;;;;;5097643;28;20198;-88
2022/07/24 05:08:32;;;;;;;3.67;2.70;;;24.00;66.70;;;;;;5097514;28;20256;-88
2022/07/24 05:10:58;;;;;;;3.37;2.70;;;24.10;66.50;;;;;;5097540;28;20344;-88
2022/07/24 05:13:23;;;;;;;3.23;3.03;;;24.10;66.40;;;;;;5097246;28;20292;-88
2022/07/24 05:15:50;;;;;;;3.20;2.80;;;24.10;66.20;;;;;;5096996;28;20170;-88
2022/07/24 05:18:16;;;;;;;3.33;3.03;;;24.10;66.20;;;;;;5097373;28;20178;-88
2022/07/24 05:20:41;;;;;;;4.00;3.70;;;24.10;67.90;;;;;;5114494;28;20205;-88
2022/07/24 05:23:07;;;;;;;3.70;3.40;;;24.20;70.60;;;;;;5097651;28;20349;-88
2022/07/24 05:25:33;;;;;;;4.13;3.80;;;24.20;68.60;;;;;;5096509;28;20166;-88
2022/07/24 05:27:59;;;;;;;3.47;3.17;;;24.30;70.20;;;;;;5097663;28;20196;-88
2022/07/24 05:30:24;;;;;;;5.13;3.73;;;24.30;68.10;;;;;;5097369;28;20329;-88
2022/07/24 05:32:50;;;;;;;4.87;3.43;;;24.20;67.70;;;;;;5097135;28;20484;-89
2022/07/24 05:35:16;;;;;;;4.13;3.47;;;24.20;69.10;;;;;;5096815;28;20552;-88
2022/07/24 05:37:42;;;;;;;4.10;3.47;;;24.30;68.20;;;;;;5114817;28;20166;-89
2022/07/24 05:40:08;;;;;;;3.33;3.03;;;24.40;66.40;;;;;;5097604;28;20541;-89
2022/07/24 05:42:34;;;;;;;3.53;3.23;;;24.40;66.50;;;;;;5096904;28;20285;-89
2022/07/24 05:45:00;;;;;;;3.03;2.83;;;24.60;66.40;;;;;;5096866;28;20272;-88
2022/07/24 05:47:25;;;;;;;3.50;3.20;;;24.70;63.60;;;;;;5096176;28;20171;-89
2022/07/24 05:49:51;;;;;;;3.50;3.20;;;24.80;63.80;;;;;;5097164;28;20186;-89
2022/07/24 05:52:17;;;;;;;3.40;3.00;;;24.80;63.40;;;;;;5096513;28;20269;-90
2022/07/24 05:54:43;;;;;;;3.47;3.17;;;24.90;62.30;;;;;;5096080;28;20171;-89
2022/07/24 05:57:08;;;;;;;3.27;3.07;;;25.00;62.10;;;;;;5096666;28;20189;-89
2022/07/24 05:59:34;;;;;;;4.00;3.43;;;25.10;61.80;;;;;;5096079;28;20206;-90
2022/07/24 06:02:03;;;;;;;4.00;3.13;;;25.20;61.80;;;;;;5095864;28;20236;-89
2022/07/24 06:04:30;;;;;;;3.33;2.73;;;25.30;60.30;;;;;;5096827;28;20174;-89
2022/07/24 06:06:55;;;;;;;3.23;3.00;;;25.50;59.40;;;;;;5096603;28;20162;-90
2022/07/24 06:09:21;;;;;;;4.17;3.40;;;25.60;59.30;;;;;;5096697;28;20563;-89
2022/07/24 06:11:47;;;;;;;3.87;3.47;;;25.70;59.70;;;;;;5097125;28;20170;-90
2022/07/24 06:14:13;;;;;;;3.53;3.23;;;25.80;58.90;;;;;;5096899;28;20235;-90
2022/07/24 06:16:38;;;;;;;3.60;3.30;;;25.90;58.70;;;;;;5097166;28;20174;-89
2022/07/24 06:19:04;;;;;;;3.77;3.47;;;26.00;58.00;;;;;;5096486;28;20182;-88
2022/07/24 06:21:29;;;;;;;3.50;3.20;;;26.10;58.00;;;;;;5096612;28;20621;-89
2022/07/24 06:23:55;;;;;;;3.60;3.30;;;26.20;58.30;;;;;;5114346;28;20166;-89
2022/07/24 06:26:21;;;;;;;3.23;2.77;;;26.30;57.50;;;;;;5096405;28;20188;-88
2022/07/24 06:28:47;;;;;;;3.73;3.43;;;26.40;56.90;;;;;;5095732;28;20170;-88
2022/07/24 06:31:13;;;;;;;3.77;3.20;;;26.50;57.30;;;;;;5099358;28;20174;-88
2022/07/24 06:33:38;;;;;;;2.93;2.73;;;26.60;56.70;;;;;;5100681;28;20170;-89
2022/07/24 06:36:05;;;;;;;3.70;3.40;;;26.70;56.70;;;;;;5100551;28;20197;-89
2022/07/24 06:38:31;;;;;;;3.53;3.13;;;26.80;56.10;;;;;;5099632;28;20552;-89
2022/07/24 06:40:56;;;;;;;4.37;3.10;;;26.90;55.90;;;;;;5117360;28;20208;-88
2022/07/24 06:43:22;;;;;;;3.27;2.97;;;27.00;55.50;;;;;;5099616;28;20590;-88
2022/07/24 06:45:48;;;;;;;3.63;3.30;;;27.10;55.20;;;;;;5100532;28;20208;-88
2022/07/24 06:48:14;;;;;;;3.57;3.27;;;27.30;55.00;;;;;;5099187;28;20179;-88
2022/07/24 06:50:39;;;;;;;3.50;3.20;;;27.40;55.20;;;;;;5100408;28;20599;-88
2022/07/24 06:53:05;;;;;;;3.40;3.10;;;27.50;54.50;;;;;;5099477;28;20170;-88
2022/07/24 06:55:31;;;;;;;3.40;3.10;;;27.60;54.20;;;;;;5117202;28;20599;-88
2022/07/24 06:57:57;;;;;;;3.60;3.30;;;27.80;54.00;;;;;;5099246;28;20551;-88
2022/07/24 07:00:23;;;;;;;2.90;2.70;;;28.00;53.70;;;;;;5098247;28;20210;-88
2022/07/24 07:02:50;;;;;;;3.10;2.90;;;28.10;53.50;;;;;;5098057;28;20448;-88
2022/07/24 07:05:16;;;;;;;4.57;2.90;;;28.50;53.20;;;;;;5098654;28;20552;-88
2022/07/24 07:07:43;;;;;;;3.23;2.93;;;29.00;52.70;;;;;;5098594;28;20171;-88
2022/07/24 07:10:09;;;;;;;3.27;2.97;;;29.40;52.00;;;;;;5099127;28;20276;-89
2022/07/24 07:12:35;;;;;;;3.10;2.80;;;30.00;51.30;;;;;;5098952;28;20265;-88
2022/07/24 07:15:01;;;;;;;3.27;2.80;;;30.50;50.50;;;;;;5116559;28;20616;-88
2022/07/24 07:17:27;;;;;;;3.43;2.93;;;31.00;49.80;;;;;;5098986;28;20177;-88
2022/07/24 07:19:53;;;;;;;3.00;2.80;;;31.40;49.20;;;;;;5097620;28;20202;-88
2022/07/24 07:22:18;;;;;;;3.47;3.00;;;31.60;48.70;;;;;;5097051;28;20261;-88
2022/07/24 07:24:44;;;;;;;4.30;3.00;;;31.90;48.50;;;;;;5096928;28;20443;-89
2022/07/24 07:27:10;;;;;;;3.50;2.80;;;32.10;48.40;;;;;;5096369;28;20170;-88
2022/07/24 07:29:36;;;;;;;3.07;2.80;;;32.40;47.90;;;;;;5097400;28;20170;-89
2022/07/24 07:32:02;;;;;;;4.40;3.10;;;32.60;47.50;;;;;;5095696;28;20261;-88
2022/07/24 07:34:28;;;;;;;3.15;2.92;;;32.80;47.30;;;;;;5096075;28;20170;-89
2022/07/24 07:36:54;;;;;;;3.00;2.80;;;33.10;47.00;;;;;;5095560;28;20231;-89
2022/07/24 07:39:19;;;;;;;3.13;2.83;;;33.40;46.90;;;;;;5097228;28;20177;-89
2022/07/24 07:41:45;;;;;;;3.35;3.03;;;33.60;46.30;;;;;;5096895;28;20202;-89
2022/07/24 07:44:11;;;;;;;3.00;2.80;;;33.80;46.00;;;;;;5097273;28;20170;-88
2022/07/24 07:46:37;;;;;;;3.20;3.00;;;34.00;45.80;;;;;;5096585;28;20175;-88
2022/07/24 07:49:03;;;;;;;2.90;2.65;;;34.20;45.50;;;;;;5096841;28;20180;-89
2022/07/24 07:51:30;;;;;;;2.90;2.70;;;34.40;45.40;;;;;;5096057;28;20459;-89
2022/07/24 07:53:55;;;;;;;2.88;2.67;;;34.60;45.20;;;;;;5097271;28;20170;-90
2022/07/24 07:56:21;;;;;;;3.35;3.10;;;34.80;45.00;;;;;;5096199;28;20272;-89
2022/07/24 07:58:47;;;;;;;3.28;2.97;;;35.00;44.70;;;;;;5114379;28;20763;-88
2022/07/24 08:01:13;;;;;;;3.30;3.00;;;35.10;44.50;;;;;;5096147;28;20660;-89
2022/07/24 08:03:39;;;;;;;3.47;3.08;;;35.30;44.50;;;;;;5095343;28;20173;-89
2022/07/24 08:06:04;;;;;;;2.83;2.63;;;35.40;44.40;;;;;;5094723;28;20178;-90
2022/07/24 08:08:30;;;;;;;3.30;3.00;;;35.50;44.10;;;;;;5094857;28;20493;-89
2022/07/24 08:10:56;;;;;;;4.05;3.00;;;35.70;43.90;;;;;;5095594;28;20178;-89
2022/07/24 08:13:22;;;;;;;3.20;3.00;;;35.80;43.90;;;;;;5096748;28;20555;-89
2022/07/24 08:15:48;;;;;;;3.35;3.05;;;35.90;43.70;;;;;;5112966;28;20264;-89
2022/07/24 08:18:14;;;;;;;3.05;2.83;;;35.90;43.70;;;;;;5096168;28;20184;-88
2022/07/24 08:20:40;;;;;;;3.20;3.00;;;36.00;43.50;;;;;;5113796;28;20209;-89
2022/07/24 08:23:05;;;;;;;4.05;3.08;;;36.10;43.40;;;;;;5095401;28;20170;-89
2022/07/24 08:25:31;;;;;;;2.95;2.75;;;36.20;43.20;;;;;;5095916;28;20205;-89
2022/07/24 08:27:57;;;;;;;3.05;2.85;;;36.30;43.30;;;;;;5095663;28;20559;-89
2022/07/24 08:30:25;;;;;;;3.20;2.90;;;36.40;43.20;;;;;;5113318;28;20166;-89
2022/07/24 08:32:50;;;;;;;3.25;3.05;;;36.40;43.00;;;;;;5094776;28;20220;-90
2022/07/24 08:35:16;;;;;;;3.67;3.03;;;36.40;43.00;;;;;;5095442;28;20170;-89
2022/07/24 08:37:42;;;;;;;3.33;3.05;;;36.40;43.00;;;;;;5093517;28;20170;-89
2022/07/24 08:40:10;;;;;;;3.30;3.00;;;36.50;43.00;;;;;;5093910;28;20270;-89
2022/07/24 08:42:36;;;;;;;3.70;3.25;;;36.60;42.90;;;;;;5095694;28;20186;-89
2022/07/24 08:45:06;;;;;;;3.08;2.88;;;36.60;42.80;;;;;;5093509;28;20421;-89
2022/07/24 08:47:32;;;;;;;3.50;3.30;;;36.60;42.80;;;;;;5095125;28;20166;-89
2022/07/24 08:49:59;;;;;;;3.42;3.20;;;36.70;42.80;;;;;;5094179;28;20181;-89
2022/07/24 08:52:25;;;;;;;3.10;2.90;;;36.80;42.80;;;;;;5111223;28;20206;-89
2022/07/24 08:54:52;;;;;;;3.10;2.90;;;36.80;42.80;;;;;;5093925;28;20524;-90
2022/07/24 08:57:18;;;;;;;3.50;3.20;;;36.90;42.90;;;;;;5094150;28;20228;-89
2022/07/24 08:59:44;;;;;;;3.38;3.08;;;36.90;42.80;;;;;;5093582;28;20217;-89
2022/07/24 09:02:10;;;;;;;3.83;2.90;;;37.00;42.80;;;;;;5094639;28;20163;-89
2022/07/24 09:04:47;;;;;;;3.50;3.20;;;37.00;42.70;;;;;;5094347;28;20544;-89
2022/07/24 09:07:18;;;;;;;3.80;3.20;;;37.00;42.80;;;;;;5111464;28;20173;-90
2022/07/24 09:09:57;;;;;;;3.45;3.15;;;37.10;42.60;;;;;;5094667;28;20178;-89
2022/07/24 09:12:22;;;;;;;3.58;3.28;;;37.10;42.60;;;;;;5093907;28;20170;-91
2022/07/24 09:14:49;;;;;;;3.67;3.38;;;37.10;42.50;;;;;;5094454;28;20454;-90
2022/07/24 09:17:20;;;;;;;4.10;3.70;;;37.20;42.60;;;;;;5094507;28;20216;-90
2022/07/24 09:19:58;;;;;;;3.38;3.00;;;37.00;42.70;;;;;;5093635;28;20242;-90
2022/07/24 09:22:30;;;;;;;4.18;3.67;;;37.00;42.70;;;;;;5112513;28;20351;-90
2022/07/24 09:25:15;;;;;;;3.80;3.50;;;37.00;42.80;;;;;;5111071;28;20250;-90
2022/07/24 09:27:49;;;;;;;3.85;3.47;;;36.60;42.90;;;;;;5093616;28;20535;-89
2022/07/24 09:30:35;;;;;;;3.95;3.63;;;36.30;43.60;;;;;;5111249;28;20571;-90
2022/07/24 09:33:07;;;;;;;3.90;3.60;;;35.60;43.50;;;;;;5094461;28;20173;-89
2022/07/24 09:35:37;;;;;;;4.15;3.55;;;35.10;44.00;;;;;;5096891;28;20504;-89
2022/07/24 09:38:04;;;;;;;5.25;3.65;;;34.70;44.30;;;;;;5111971;28;20257;-89
2022/07/24 09:40:41;;;;;;;4.85;3.70;;;34.40;44.50;;;;;;5094485;28;20254;-90
2022/07/24 09:43:17;;;;;;;3.72;3.42;;;34.10;44.90;;;;;;5094920;28;20178;-89
2022/07/24 09:45:59;;;;;;;4.90;3.50;;;33.80;45.10;;;;;;5093801;28;20201;-89
2022/07/24 09:48:32;;;;;;;4.20;3.80;;;33.60;45.40;;;;;;5094155;28;20181;-89
2022/07/24 09:51:01;;;;;;;5.10;4.25;;;33.50;45.60;;;;;;5094070;28;20174;-90
2022/07/24 09:53:29;;;;;;;5.97;4.28;;;33.30;45.70;;;;;;5111694;28;20182;-90
2022/07/24 09:56:05;;;;;;;4.05;3.75;;;33.20;46.20;;;;;;5093975;28;20174;-89
2022/07/24 09:58:33;;;;;;;4.07;3.67;;;33.10;46.10;;;;;;5111475;28;20559;-90
2022/07/24 10:01:02;;;;;;;5.65;4.40;;;33.10;46.10;;;;;;5093816;28;20202;-90
2022/07/24 10:03:34;;;;;;;3.85;3.50;;;33.00;46.20;;;;;;5111051;28;20547;-90
2022/07/24 10:06:05;;;;;;;3.92;3.63;;;33.00;46.30;;;;;;5098167;28;20174;-90
2022/07/24 10:08:33;;;;;;;4.45;4.05;;;32.80;46.40;;;;;;5096370;28;20544;-89
2022/07/24 10:10:59;;;;;;;4.43;4.03;;;32.80;46.50;;;;;;5096825;28;20589;-90
2022/07/24 10:13:27;;;;;;;4.53;4.03;;;32.80;46.60;;;;;;5097869;28;20170;-89
2022/07/24 10:16:14;;;;;;;4.40;4.00;;;32.70;46.80;;;;;;5096840;28;20174;-89
2022/07/24 10:19:12;;;;;;;3.97;3.60;;;32.70;46.80;;;;;;5096626;28;20170;-89
2022/07/24 10:21:38;;;;;;;5.65;4.13;;;32.60;46.80;;;;;;5091854;28;20200;-89
2022/07/24 10:24:07;;;;;;;4.28;3.88;;;32.60;47.00;;;;;;5115516;28;20560;-89
2022/07/24 10:27:04;;;;;;;4.28;3.95;;;32.50;47.10;;;;;;5095704;28;20209;-89
2022/07/24 10:29:33;;;;;;;5.13;4.28;;;32.50;47.20;;;;;;5093219;28;20178;-89
2022/07/24 10:32:00;;;;;;;4.95;4.00;;;32.40;47.30;;;;;;5096245;28;20579;-89
2022/07/24 10:34:46;;;;;;;4.47;3.78;;;32.40;47.40;;;;;;5096534;28;20250;-90
2022/07/24 10:37:26;;;;;;;4.43;3.50;;;32.40;47.50;;;;;;5095126;28;20175;-90
2022/07/24 10:40:23;;;;;;;4.65;3.90;;;32.30;47.50;;;;;;5095847;28;20637;-90
2022/07/24 10:43:10;;;;;;;4.35;3.83;;;32.30;47.60;;;;;;5095791;28;20599;-89
2022/07/24 10:46:07;;;;;;;4.38;3.97;;;32.30;47.80;;;;;;5095215;28;20169;-89
2022/07/24 10:48:36;;;;;;;4.50;3.70;;;32.30;47.90;;;;;;5095565;28;20170;-89
2022/07/24 10:51:06;;;;;;;4.40;3.80;;;32.30;47.90;;;;;;5114932;28;20182;-89
2022/07/24 10:53:38;;;;;;;4.97;4.03;;;32.20;48.10;;;;;;5095549;28;20170;-89
2022/07/24 10:56:16;;;;;;;6.88;4.50;;;32.10;48.20;;;;;;5094443;28;20170;-89
2022/07/24 10:59:07;;;;;;;4.60;4.20;;;32.10;48.40;;;;;;5095172;28;20184;-90
2022/07/24 11:01:37;;;;;;;4.63;4.03;;;32.10;48.30;;;;;;5095342;28;20205;-89
2022/07/24 11:04:18;;;;;;;4.65;4.25;;;32.00;48.20;;;;;;5095836;28;20582;-89
2022/07/24 11:06:50;;;;;;;4.97;4.10;;;32.00;48.40;;;;;;5095273;28;20166;-89
2022/07/24 11:09:18;;;;;;;4.65;4.10;;;32.00;48.50;;;;;;5095043;28;20214;-89
2022/07/24 11:11:55;;;;;;;4.40;4.10;;;32.00;48.50;;;;;;5113443;28;20154;-89
2022/07/24 11:14:25;;;;;;;4.88;4.18;;;31.90;48.50;;;;;;5095621;28;20173;-89
2022/07/24 11:16:51;;;;;;;4.40;4.00;;;31.90;49.10;;;;;;5093833;28;20167;-89
2022/07/24 11:19:17;;;;;;;4.50;4.10;;;31.90;49.10;;;;;;5094283;28;20182;-90
2022/07/24 11:21:49;;;;;;;5.18;3.83;;;31.90;48.90;;;;;;5096221;28;20255;-90
2022/07/24 11:24:27;;;;;;;4.18;3.78;;;31.80;48.90;;;;;;5095526;28;20166;-89
2022/07/24 11:27:05;;;;;;;4.43;4.03;;;31.80;49.00;;;;;;5094547;28;20421;-89
2022/07/24 11:29:35;;;;;;;5.03;4.10;;;31.80;49.00;;;;;;5095302;28;20201;-89
2022/07/24 11:32:01;;;;;;;4.63;4.22;;;31.80;49.00;;;;;;5095134;28;20212;-89
2022/07/24 11:34:28;;;;;;;4.35;3.95;;;31.70;49.10;;;;;;5095837;28;20233;-89
2022/07/24 11:36:55;;;;;;;4.60;4.20;;;31.70;49.20;;;;;;5111660;28;20166;-89
2022/07/24 11:39:29;;;;;;;5.00;4.50;;;31.70;49.20;;;;;;5112959;28;20170;-89
2022/07/24 11:41:58;;;;;;;5.00;4.50;;;31.70;49.30;;;;;;5113417;28;20234;-89
2022/07/24 11:44:29;;;;;;;4.75;4.35;;;31.70;49.40;;;;;;5093878;28;20189;-89
2022/07/24 11:46:57;;;;;;;4.45;4.15;;;31.60;49.50;;;;;;5093364;28;20197;-89
2022/07/24 11:49:24;;;;;;;4.22;3.78;;;31.70;49.60;;;;;;5111824;28;20169;-90
2022/07/24 11:51:51;;;;;;;5.93;3.85;;;31.60;49.50;;;;;;5095410;28;20166;-90
2022/07/24 11:54:27;;;;;;;4.50;4.10;;;31.60;49.50;;;;;;5094502;28;20167;-90
2022/07/24 11:56:55;;;;;;;8.15;5.05;;;31.60;49.60;;;;;;5094198;28;20174;-89
2022/07/24 11:59:26;;;;;;;5.78;4.40;;;31.60;49.50;;;;;;5093459;28;20170;-89
2022/07/24 12:02:03;;;;;;;4.93;4.32;;;31.60;49.70;;;;;;5093109;28;20432;-89
2022/07/24 12:04:29;;;;;;;5.10;4.57;;;31.60;49.80;;;;;;5093855;28;20520;-90
2022/07/24 12:06:55;;;;;;;4.82;4.20;;;31.50;49.70;;;;;;5112107;28;20166;-89
2022/07/24 12:09:20;;;;;;;4.80;4.40;;;31.60;49.60;;;;;;5093496;28;20597;-90
2022/07/24 12:11:46;;;;;;;4.50;4.10;;;31.50;49.70;;;;;;5093517;28;20566;-89
2022/07/24 12:14:21;;;;;;;4.60;4.20;;;31.50;49.80;;;;;;5094158;28;20589;-89
2022/07/24 12:16:53;;;;;;;4.82;4.43;;;31.50;49.80;;;;;;5094276;28;20268;-89
2022/07/24 12:19:22;;;;;;;4.53;4.13;;;31.40;49.80;;;;;;5092388;28;20170;-89
2022/07/24 12:21:50;;;;;;;4.55;4.15;;;31.40;49.90;;;;;;5092967;28;20597;-89
2022/07/24 12:24:16;;;;;;;4.25;3.95;;;31.40;50.00;;;;;;5093540;28;20178;-89
2022/07/24 12:26:55;;;;;;;7.50;4.68;;;31.40;50.00;;;;;;5108954;28;20158;-89
2022/07/24 12:29:22;;;;;;;4.40;3.83;;;31.40;50.00;;;;;;5108487;28;20162;-89
2022/07/24 12:31:49;;;;;;;6.28;4.38;;;31.40;50.10;;;;;;5091596;28;20189;-89
2022/07/24 12:34:16;;;;;;;5.05;4.20;;;31.30;50.10;;;;;;5092382;28;20174;-90
2022/07/24 12:36:42;;;;;;;4.60;3.97;;;31.30;50.20;;;;;;5092165;28;20198;-89
2022/07/24 12:39:08;;;;;;;5.47;4.28;;;31.30;50.10;;;;;;5091331;28;20179;-90
2022/07/24 12:41:45;;;;;;;4.63;4.22;;;31.30;50.20;;;;;;5092096;28;20205;-89
2022/07/24 12:44:11;;;;;;;5.00;4.60;;;31.30;50.20;;;;;;5092932;28;20468;-89
2022/07/24 12:46:39;;;;;;;6.38;4.53;;;31.30;49.70;;;;;;5091358;28;20170;-90
2022/07/24 12:49:07;;;;;;;4.45;4.05;;;31.30;48.90;;;;;;5092753;28;20185;-89
2022/07/24 12:51:53;;;;;;;4.53;4.13;;;31.20;49.80;;;;;;5109324;28;20379;-90